createdAt,value
2019-04-28T00:01:28.091Z,96227.39
2019-04-28T00:03:55.384Z,96229.06
2019-04-28T00:06:22.420Z,96230.48
2019-04-28T00:08:49.451Z,96220.61
2019-04-28T00:11:16.570Z,96224.36
2019-04-28T00:13:43.602Z,96225.41
2019-04-28T00:16:11.588Z,96229.63
2019-04-28T00:18:38.842Z,96228.09
2019-04-28T00:21:06.858Z,96229.28
2019-04-28T00:23:33.889Z,96226.83
2019-04-28T00:26:01.533Z,96226.60
2019-04-28T00:28:29.045Z,96225.63
2019-04-28T00:30:56.093Z,96229.19
2019-04-28T00:33:23.125Z,96226.98
2019-04-28T00:35:51.542Z,96230.03
2019-04-28T00:38:19.014Z,96234.61
2019-04-28T00:40:46.075Z,96228.36
2019-04-28T00:43:13.339Z,96223.80
2019-04-28T00:45:41.334Z,96234.70
2019-04-28T00:48:08.396Z,96237.27
2019-04-28T00:50:35.687Z,96236.31
2019-04-28T00:53:02.722Z,96241.14
2019-04-28T00:55:29.769Z,96244.52
2019-04-28T00:57:56.872Z,96246.06
2019-04-28T01:00:24.187Z,96255.15
2019-04-28T01:02:51.208Z,96250.58
2019-04-28T01:05:18.257Z,96243.63
2019-04-28T01:07:45.293Z,96248.81
2019-04-28T01:10:12.335Z,96245.42
2019-04-28T01:12:41.128Z,96254.62
2019-04-28T01:15:10.248Z,96249.48
2019-04-28T01:17:40.450Z,96252.64
2019-04-28T01:20:07.483Z,96249.45
2019-04-28T01:22:34.773Z,96248.14
2019-04-28T01:25:01.809Z,96252.81
2019-04-28T01:27:30.402Z,96251.39
2019-04-28T01:30:07.584Z,96246.56
2019-04-28T01:32:26.249Z,96240.45
2019-04-28T01:34:53.285Z,96241.39
2019-04-28T01:37:20.337Z,96250.70
2019-04-28T01:39:49.489Z,96238.11
2019-04-28T01:42:16.355Z,96244.70
2019-04-28T01:44:43.706Z,96250.23
2019-04-28T01:47:11.064Z,96242.72
2019-04-28T01:49:40.432Z,96246.27
2019-04-28T01:52:07.513Z,96252.88
2019-04-28T01:54:34.552Z,96247.39
2019-04-28T01:57:01.690Z,96254.67
2019-04-28T01:59:30.361Z,96252.68
2019-04-28T02:01:57.508Z,96253.16
2019-04-28T02:04:24.807Z,96243.28
2019-04-28T02:06:52.157Z,96244.45
2019-04-28T02:09:19.536Z,96244.68
2019-04-28T02:11:46.865Z,96244.33
2019-04-28T02:14:14.221Z,96235.75
2019-04-28T02:16:41.281Z,96238.46
2019-04-28T02:19:10.624Z,96240.95
2019-04-28T02:21:37.365Z,96239.90
2019-04-28T02:24:04.405Z,96246.38
2019-04-28T02:26:31.447Z,96243.72
2019-04-28T02:29:00.284Z,96246.55
2019-04-28T02:31:27.370Z,96249.61
2019-04-28T02:33:54.667Z,96244.09
2019-04-28T02:36:22.005Z,96244.34
2019-04-28T02:38:51.340Z,96244.69
2019-04-28T02:41:20.706Z,96243.64
2019-04-28T02:43:47.167Z,96241.28
2019-04-28T02:46:14.194Z,96242.92
2019-04-28T02:48:41.521Z,96245.27
2019-04-28T02:51:10.859Z,96243.60
2019-04-28T02:53:37.270Z,96231.92
2019-04-28T02:56:05.275Z,96227.20
2019-04-28T02:58:32.308Z,96228.49
2019-04-28T03:01:10.718Z,96229.89
2019-04-28T03:03:30.649Z,96226.58
2019-04-28T03:05:57.060Z,96224.02
2019-04-28T03:08:24.116Z,96229.53
2019-04-28T03:10:51.390Z,96223.55
2019-04-28T03:13:20.921Z,96223.80
2019-04-28T03:15:47.403Z,96216.28
2019-04-28T03:18:14.445Z,96216.19
2019-04-28T03:20:42.040Z,96226.34
2019-04-28T03:23:12.258Z,96229.55
2019-04-28T03:25:40.832Z,96224.52
2019-04-28T03:28:06.804Z,96224.41
2019-04-28T03:30:34.301Z,96221.13
2019-04-28T03:33:10.726Z,96224.06
2019-04-28T03:35:32.637Z,96225.79
2019-04-28T03:38:01.240Z,96225.65
2019-04-28T03:40:27.654Z,96225.53
2019-04-28T03:42:54.705Z,96214.47
2019-04-28T03:45:21.736Z,96216.06
2019-04-28T03:47:50.915Z,96215.94
2019-04-28T03:50:20.082Z,96210.07
2019-04-28T03:52:46.248Z,96221.11
2019-04-28T03:55:13.297Z,96219.09
2019-04-28T03:57:41.260Z,96219.55
2019-04-28T04:00:10.964Z,96218.59
2019-04-28T04:02:37.284Z,96222.23
2019-04-28T04:05:04.659Z,96220.81
2019-04-28T04:07:31.690Z,96221.51
2019-04-28T04:10:00.912Z,96215.73
2019-04-28T04:12:27.465Z,96223.50
2019-04-28T04:14:54.522Z,96223.25
2019-04-28T04:17:21.555Z,96224.05
2019-04-28T04:19:50.338Z,96222.63
2019-04-28T04:22:17.421Z,96226.63
2019-04-28T04:24:44.728Z,96221.36
2019-04-28T04:27:12.091Z,96218.67
2019-04-28T04:29:43.312Z,96214.34
2019-04-28T04:32:15.177Z,96215.89
2019-04-28T04:34:36.870Z,96220.69
2019-04-28T04:37:03.903Z,96217.70
2019-04-28T04:39:31.221Z,96220.67
2019-04-28T04:42:00.576Z,96219.25
2019-04-28T04:44:27.077Z,96221.73
2019-04-28T04:46:54.412Z,96227.69
2019-04-28T04:49:21.838Z,96224.06
2019-04-28T04:51:50.856Z,96227.98
2019-04-28T04:54:20.268Z,96222.02
2019-04-28T04:56:46.596Z,96227.45
2019-04-28T04:59:13.645Z,96227.92
2019-04-28T05:01:41.032Z,96227.06
2019-04-28T05:04:09.663Z,96227.81
2019-04-28T05:06:37.040Z,96229.07
2019-04-28T05:09:04.393Z,96236.28
2019-04-28T05:11:31.729Z,96237.78
2019-04-28T05:13:59.646Z,96234.77
2019-04-28T05:16:26.897Z,96236.11
2019-04-28T05:18:53.939Z,96236.47
2019-04-28T05:21:21.574Z,96235.09
2019-04-28T05:23:49.324Z,96230.61
2019-04-28T05:26:17.341Z,96228.59
2019-04-28T05:28:51.442Z,96231.05
2019-04-28T05:31:19.957Z,96228.55
2019-04-28T05:33:42.233Z,96238.16
2019-04-28T05:36:09.883Z,96234.40
2019-04-28T05:38:37.249Z,96235.72
2019-04-28T05:41:04.616Z,96241.48
2019-04-28T05:43:31.655Z,96235.23
2019-04-28T05:46:00.278Z,96233.93
2019-04-28T05:48:27.530Z,96239.06
2019-04-28T05:50:54.582Z,96243.85
2019-04-28T05:53:21.905Z,96241.98
2019-04-28T05:55:50.198Z,96236.49
2019-04-28T05:58:17.469Z,96239.60
2019-04-28T06:00:44.523Z,96237.02
2019-04-28T06:03:11.552Z,96242.95
2019-04-28T06:05:39.488Z,96244.70
2019-04-28T06:08:06.961Z,96237.78
2019-04-28T06:10:34.316Z,96242.91
2019-04-28T06:13:01.357Z,96243.67
2019-04-28T06:15:29.608Z,96244.84
2019-04-28T06:17:56.607Z,96250.75
2019-04-28T06:20:23.897Z,96245.73
2019-04-28T06:22:51.105Z,96249.40
2019-04-28T06:25:18.200Z,96246.70
2019-04-28T06:27:45.204Z,96248.71
2019-04-28T06:30:14.410Z,96246.50
2019-04-28T06:32:41.462Z,96251.62
2019-04-28T06:35:09.928Z,96253.65
2019-04-28T06:37:37.265Z,96249.25
2019-04-28T06:40:16.341Z,96259.87
2019-04-28T06:42:43.835Z,96262.50
2019-04-28T06:45:12.890Z,96257.33
2019-04-28T06:47:40.183Z,96255.14
2019-04-28T06:50:07.422Z,96259.52
2019-04-28T06:52:35.717Z,96262.27
2019-04-28T06:55:04.006Z,96257.14
2019-04-28T06:57:37.980Z,96260.09
2019-04-28T07:00:08.282Z,96266.53
2019-04-28T07:02:35.558Z,96257.33
2019-04-28T07:05:04.722Z,96264.15
2019-04-28T07:07:32.916Z,96268.11
2019-04-28T07:10:01.349Z,96261.64
2019-04-28T07:15:08.050Z,96263.94
2019-04-28T07:17:39.186Z,96266.34
2019-04-28T07:20:06.864Z,96257.23
2019-04-28T07:22:33.923Z,96261.75
2019-04-28T07:25:01.970Z,96261.95
2019-04-28T07:27:29.367Z,96259.36
2019-04-28T07:29:57.293Z,96260.56
2019-04-28T07:32:26.540Z,96264.95
2019-04-28T07:34:53.772Z,96261.16
2019-04-28T07:37:20.937Z,96258.71
2019-04-28T07:39:53.299Z,96266.16
2019-04-28T07:42:22.523Z,96265.95
2019-04-28T07:44:55.960Z,96264.01
2019-04-28T07:47:23.028Z,96265.36
2019-04-28T07:49:50.174Z,96273.45
2019-04-28T07:52:17.234Z,96270.72
2019-04-28T07:54:47.457Z,96271.70
2019-04-28T07:59:56.832Z,96279.39
2019-04-28T08:02:24.158Z,96279.34
2019-04-28T08:04:51.913Z,96283.00
2019-04-28T08:07:19.470Z,96285.55
2019-04-28T08:09:48.604Z,96289.17
2019-04-28T08:12:18.092Z,96294.52
2019-04-28T08:14:45.262Z,96295.45
2019-04-28T08:17:18.231Z,96299.78
2019-04-28T08:19:46.790Z,96297.82
2019-04-28T08:22:19.857Z,96304.98
2019-04-28T08:24:51.842Z,96295.55
2019-04-28T08:27:18.887Z,96290.03
2019-04-28T08:29:57.811Z,96292.73
2019-04-28T08:32:16.278Z,96291.72
2019-04-28T08:37:18.296Z,96301.41
2019-04-28T08:39:47.484Z,96302.14
2019-04-28T08:42:14.723Z,96296.12
2019-04-28T08:44:46.758Z,96289.83
2019-04-28T08:47:22.030Z,96291.95
2019-04-28T08:49:49.304Z,96285.99
2019-04-28T08:52:16.349Z,96275.83
2019-04-28T08:54:43.925Z,96268.96
2019-04-28T08:57:16.491Z,96265.48
2019-04-28T08:59:47.582Z,96272.77
2019-04-28T09:02:16.059Z,96263.53
2019-04-28T09:04:45.309Z,96271.05
2019-04-28T09:09:49.648Z,96281.45
2019-04-28T09:12:16.642Z,96279.35
2019-04-28T09:14:48.980Z,96283.72
2019-04-28T09:17:16.268Z,96293.56
2019-04-28T09:19:43.465Z,96301.01
2019-04-28T09:22:18.066Z,96292.80
2019-04-28T09:24:46.271Z,96293.55
2019-04-28T09:29:44.876Z,96289.61
2019-04-28T09:32:12.299Z,96286.34
2019-04-28T09:34:39.966Z,96280.39
2019-04-28T09:37:07.230Z,96277.54
2019-04-28T09:39:39.669Z,96286.54
2019-04-28T09:42:06.869Z,96280.73
2019-04-28T09:47:12.434Z,96283.16
2019-04-28T09:49:39.686Z,96288.92
2019-04-28T09:52:06.980Z,96297.07
2019-04-28T09:54:36.236Z,96291.19
2019-04-28T09:57:04.393Z,96299.61
2019-04-28T09:59:36.963Z,96303.78
2019-04-28T10:02:05.146Z,96296.32
2019-04-28T10:04:41.606Z,96298.96
2019-04-28T10:07:21.741Z,96300.70
2019-04-28T10:09:50.225Z,96297.44
2019-04-28T10:12:27.366Z,96302.66
2019-04-28T10:14:54.044Z,96300.38
2019-04-28T10:17:23.361Z,96300.95
2019-04-28T10:19:50.804Z,96299.70
2019-04-28T10:22:23.206Z,96298.74
2019-04-28T10:24:52.701Z,96298.47
2019-04-28T10:27:22.190Z,96290.02
2019-04-28T10:29:50.412Z,96295.18
2019-04-28T10:32:19.596Z,96301.36
2019-04-28T10:34:54.696Z,96291.80
2019-04-28T10:37:22.668Z,96296.86
2019-04-28T10:42:24.157Z,96299.28
2019-04-28T10:47:35.589Z,96293.19
2019-04-28T10:50:03.107Z,96297.83
2019-04-28T10:52:31.378Z,96289.02
2019-04-28T10:55:03.375Z,96285.16
2019-04-28T10:57:32.668Z,96297.74
2019-04-28T10:59:59.937Z,96299.22
2019-04-28T11:02:27.866Z,96290.77
2019-04-28T11:05:07.814Z,96294.20
2019-04-28T11:07:27.717Z,96292.52
2019-04-28T11:09:56.920Z,96296.19
2019-04-28T11:12:24.151Z,96295.45
2019-04-28T11:14:52.010Z,96297.61
2019-04-28T11:17:19.073Z,96289.22
2019-04-28T11:19:46.722Z,96292.61
2019-04-28T11:22:13.924Z,96294.47
2019-04-28T11:24:42.383Z,96290.60
2019-04-28T11:27:09.653Z,96280.02
2019-04-28T11:29:49.357Z,96287.89
2019-04-28T11:32:20.697Z,96282.52
2019-04-28T11:34:49.945Z,96289.59
2019-04-28T11:37:17.456Z,96283.07
2019-04-28T11:39:45.244Z,96284.88
2019-04-28T11:42:14.828Z,96281.86
2019-04-28T11:44:48.842Z,96281.28
2019-04-28T11:49:49.080Z,96281.63
2019-04-28T11:52:17.583Z,96283.23
2019-04-28T11:54:50.887Z,96284.03
2019-04-28T11:57:18.159Z,96280.87
2019-04-28T11:59:58.370Z,96278.62
2019-04-28T12:02:25.930Z,96273.66
2019-04-28T12:04:53.112Z,96272.06
2019-04-28T12:07:21.403Z,96265.56
2019-04-28T12:10:03.343Z,96267.20
2019-04-28T12:12:20.795Z,96261.98
2019-04-28T12:14:48.542Z,96259.66
2019-04-28T12:17:15.740Z,96256.12
2019-04-28T12:19:48.245Z,96255.31
2019-04-28T12:22:15.724Z,96248.57
2019-04-28T12:24:47.093Z,96250.81
2019-04-28T12:27:18.266Z,96248.19
2019-04-28T12:29:47.010Z,96247.70
2019-04-28T12:32:14.463Z,96242.16
2019-04-28T12:34:48.513Z,96239.47
2019-04-28T12:37:15.789Z,96231.96
2019-04-28T12:39:44.296Z,96235.02
2019-04-28T12:42:11.513Z,96228.74
2019-04-28T12:44:45.645Z,96231.59
2019-04-28T12:47:16.320Z,96228.50
2019-04-28T12:49:45.818Z,96241.55
2019-04-28T12:52:14.090Z,96239.09
2019-04-28T12:54:48.241Z,96245.30
2019-04-28T12:57:15.575Z,96250.30
2019-04-28T12:59:43.331Z,96246.84
2019-04-28T13:04:51.763Z,96253.14
2019-04-28T13:07:18.813Z,96251.48
2019-04-28T13:12:16.228Z,96244.16
2019-04-28T13:14:52.054Z,96249.05
2019-04-28T13:17:19.238Z,96245.13
2019-04-28T13:19:46.277Z,96247.80
2019-04-28T13:22:25.178Z,96244.11
2019-04-28T13:24:52.380Z,96231.79
2019-04-28T13:27:24.902Z,96233.17
2019-04-28T13:29:56.386Z,96231.50
2019-04-28T13:35:09.380Z,96221.86
2019-04-28T13:40:09.797Z,96219.70
2019-04-28T13:42:37.067Z,96220.25
2019-04-28T13:45:04.941Z,96214.31
2019-04-28T13:47:32.323Z,96216.05
2019-04-28T13:49:59.656Z,96214.73
2019-04-28T13:52:28.118Z,96217.86
2019-04-28T13:54:55.334Z,96216.75
2019-04-28T13:57:22.379Z,96207.48
2019-04-28T13:59:50.019Z,96212.75
2019-04-28T14:02:17.173Z,96208.80
2019-04-28T14:04:44.447Z,96203.67
2019-04-28T14:07:13.650Z,96201.67
2019-04-28T14:09:42.876Z,96202.89
2019-04-28T14:12:11.001Z,96192.97
2019-04-28T14:14:39.194Z,96192.78
2019-04-28T14:17:21.583Z,96194.56
2019-04-28T14:19:53.261Z,96194.28
2019-04-28T14:22:27.049Z,96191.20
2019-04-28T14:24:55.248Z,96190.86
2019-04-28T14:27:31.799Z,96193.31
2019-04-28T14:32:32.044Z,96184.68
2019-04-28T14:35:04.317Z,96198.30
2019-04-28T14:37:32.050Z,96190.94
2019-04-28T14:39:59.242Z,96191.88
2019-04-28T14:42:26.465Z,96193.27
2019-04-28T14:44:53.755Z,96187.68
2019-04-28T14:47:21.896Z,96195.44
2019-04-28T14:49:49.226Z,96193.93
2019-04-28T14:52:17.427Z,96188.69
2019-04-28T14:54:44.489Z,96188.22
2019-04-28T14:57:14.642Z,96189.34
2019-04-28T14:59:43.924Z,96189.31
2019-04-28T15:02:12.166Z,96192.75
2019-04-28T15:04:39.376Z,96193.48
2019-04-28T15:07:07.283Z,96194.06
2019-04-28T15:09:34.457Z,96197.09
2019-04-28T15:12:09.593Z,96195.89
2019-04-28T15:14:36.857Z,96189.47
2019-04-28T15:17:04.789Z,96193.27
2019-04-28T15:19:33.367Z,96191.22
2019-04-28T15:22:07.602Z,96181.60
2019-04-28T15:27:10.475Z,96189.78
2019-04-28T15:29:43.202Z,96193.23
2019-04-28T15:32:12.653Z,96192.13
2019-04-28T15:37:18.343Z,96203.34
2019-04-28T15:39:46.625Z,96206.97
2019-04-28T15:42:15.086Z,96206.92
2019-04-28T15:44:44.606Z,96206.30
2019-04-28T15:47:12.789Z,96202.40
2019-04-28T15:49:44.670Z,96201.02
2019-04-28T15:52:26.420Z,96205.43
2019-04-28T15:54:53.478Z,96198.14
2019-04-28T15:57:20.638Z,96200.10
2019-04-28T15:59:48.173Z,96203.33
2019-04-28T16:02:15.942Z,96205.44
2019-04-28T16:07:24.700Z,96204.46
2019-04-28T16:15:01.911Z,96208.77
2019-04-28T16:17:32.417Z,96209.91
2019-04-28T16:19:59.533Z,96212.69
2019-04-28T16:22:30.852Z,96215.78
2019-04-28T16:24:59.308Z,96217.58
2019-04-28T16:27:27.073Z,96215.95
2019-04-28T16:29:56.297Z,96219.70
2019-04-28T16:32:23.725Z,96220.52
2019-04-28T16:34:50.903Z,96217.09
2019-04-28T16:40:07.691Z,96219.54
2019-04-28T16:42:34.034Z,96219.86
2019-04-28T16:45:08.075Z,96221.17
2019-04-28T16:47:36.382Z,96215.45
2019-04-28T16:50:04.310Z,96211.50
2019-04-28T16:52:37.281Z,96209.69
2019-04-28T16:57:44.859Z,96214.57
2019-04-28T17:00:18.113Z,96216.37
2019-04-28T17:02:45.447Z,96217.20
2019-04-28T17:05:17.752Z,96224.39
2019-04-28T17:07:53.306Z,96226.56
2019-04-28T17:10:17.970Z,96220.19
2019-04-28T17:12:45.407Z,96223.46
2019-04-28T17:15:17.719Z,96226.89
2019-04-28T17:17:45.242Z,96225.58
2019-04-28T17:20:12.290Z,96223.30
2019-04-28T17:22:39.483Z,96228.18
2019-04-28T17:25:06.521Z,96226.38
2019-04-28T17:27:46.334Z,96228.34
2019-04-28T17:30:13.667Z,96233.89
2019-04-28T17:32:42.567Z,96237.17
2019-04-28T17:35:12.195Z,96236.36
2019-04-28T17:37:45.532Z,96242.88
2019-04-28T17:40:12.571Z,96242.56
2019-04-28T17:42:41.771Z,96245.16
2019-04-28T17:45:09.007Z,96253.15
2019-04-28T17:47:36.544Z,96255.26
2019-04-28T17:50:04.762Z,96253.47
2019-04-28T17:52:31.971Z,96258.53
2019-04-28T17:54:59.660Z,96257.38
2019-04-28T17:57:28.640Z,96267.34
2019-04-28T17:59:55.969Z,96265.73
2019-04-28T18:02:24.403Z,96265.22
2019-04-28T18:04:51.543Z,96259.99
2019-04-28T18:07:25.637Z,96268.61
2019-04-28T18:09:53.490Z,96275.30
2019-04-28T18:12:26.069Z,96274.47
2019-04-28T18:17:23.990Z,96278.53
2019-04-28T18:19:58.392Z,96283.26
2019-04-28T18:22:25.829Z,96282.77
2019-04-28T18:24:54.382Z,96286.03
2019-04-28T18:27:22.635Z,96290.59
2019-04-28T18:29:54.889Z,96286.17
2019-04-28T18:32:25.614Z,96289.73
2019-04-28T18:34:53.243Z,96300.64
2019-04-28T18:37:20.714Z,96295.91
2019-04-28T18:39:48.915Z,96301.59
2019-04-28T18:42:21.941Z,96300.73
2019-04-28T18:44:49.156Z,96307.71
2019-04-28T18:47:17.353Z,96303.93
2019-04-28T18:49:44.589Z,96305.37
2019-04-28T18:52:12.644Z,96305.83
2019-04-28T18:54:45.767Z,96313.14
2019-04-28T18:57:13.074Z,96313.75
2019-04-28T18:59:41.295Z,96317.30
2019-04-28T19:02:14.238Z,96307.97
2019-04-28T19:04:41.438Z,96309.52
2019-04-28T19:07:14.502Z,96314.15
2019-04-28T19:09:43.062Z,96316.17
2019-04-28T19:12:11.523Z,96324.58
2019-04-28T19:14:44.420Z,96322.67
2019-04-28T19:17:12.374Z,96322.89
2019-04-28T19:19:42.596Z,96321.61
2019-04-28T19:22:12.963Z,96330.78
2019-04-28T19:24:40.528Z,96328.27
2019-04-28T19:27:08.761Z,96329.96
2019-04-28T19:29:35.870Z,96338.97
2019-04-28T19:32:06.664Z,96346.87
2019-04-28T19:39:46.692Z,96352.63
2019-04-28T19:42:14.739Z,96353.54
2019-04-28T19:44:41.918Z,96359.70
2019-04-28T19:47:09.937Z,96354.84
2019-04-28T19:49:42.255Z,96368.38
2019-04-28T19:52:11.437Z,96376.23
2019-04-28T19:54:39.694Z,96379.17
2019-04-28T19:57:07.951Z,96372.39
2019-04-28T20:02:14.317Z,96382.81
2019-04-28T20:04:42.947Z,96387.51
2019-04-28T20:07:11.972Z,96400.02
2019-04-28T20:09:39.238Z,96396.75
2019-04-28T20:12:06.457Z,96401.95
2019-04-28T20:14:33.995Z,96401.69
2019-04-28T20:17:01.899Z,96401.43
2019-04-28T20:19:30.644Z,96401.92
2019-04-28T20:21:57.826Z,96404.74
2019-04-28T20:24:26.120Z,96406.12
2019-04-28T20:26:53.361Z,96406.67
2019-04-28T20:29:23.169Z,96410.64
2019-04-28T20:31:49.595Z,96410.27
2019-04-28T20:34:16.871Z,96405.81
2019-04-28T20:36:45.320Z,96409.98
2019-04-28T20:39:16.891Z,96413.13
2019-04-28T20:41:48.953Z,96414.97
2019-04-28T20:44:16.556Z,96430.14
2019-04-28T20:46:48.140Z,96422.76
2019-04-28T20:49:22.190Z,96429.14
2019-04-28T20:51:49.457Z,96428.80
2019-04-28T20:54:16.682Z,96426.05
2019-04-28T20:56:48.361Z,96431.86
2019-04-28T20:59:15.593Z,96433.02
2019-04-28T21:01:42.766Z,96432.68
2019-04-28T21:04:10.687Z,96427.76
2019-04-28T21:06:37.889Z,96432.48
2019-04-28T21:09:14.128Z,96433.02
2019-04-28T21:14:20.867Z,96433.73
2019-04-28T21:16:47.949Z,96429.77
2019-04-28T21:19:14.980Z,96429.62
2019-04-28T21:21:42.034Z,96431.41
2019-04-28T21:24:09.230Z,96433.30
2019-04-28T21:26:36.282Z,96427.30
2019-04-28T21:29:03.315Z,96425.05
2019-04-28T21:31:32.813Z,96431.27
2019-04-28T21:33:59.941Z,96427.25
2019-04-28T21:36:26.984Z,96427.98
2019-04-28T21:38:54.018Z,96429.41
2019-04-28T21:41:21.059Z,96425.31
2019-04-28T21:43:49.367Z,96429.33
2019-04-28T21:46:16.411Z,96430.63
2019-04-28T21:48:44.418Z,96433.36
2019-04-28T21:51:12.300Z,96432.32
2019-04-28T21:53:40.441Z,96433.27
2019-04-28T21:56:07.529Z,96433.53
2019-04-28T21:58:34.749Z,96434.97
2019-04-28T22:01:01.806Z,96437.69
2019-04-28T22:03:30.457Z,96429.30
2019-04-28T22:05:57.504Z,96429.78
2019-04-28T22:08:24.587Z,96434.75
2019-04-28T22:10:51.917Z,96429.86
2019-04-28T22:13:18.961Z,96437.30
2019-04-28T22:15:46.322Z,96437.30
2019-04-28T22:18:13.378Z,96438.38
2019-04-28T22:20:40.403Z,96437.47
2019-04-28T22:23:17.981Z,96439.37
2019-04-28T22:25:36.428Z,96441.62
2019-04-28T22:28:03.802Z,96437.03
2019-04-28T22:30:30.828Z,96445.08
2019-04-28T22:32:57.875Z,96440.84
2019-04-28T22:35:25.167Z,96447.66
2019-04-28T22:37:52.211Z,96446.38
2019-04-28T22:40:19.589Z,96449.91
2019-04-28T22:42:46.599Z,96448.53
2019-04-28T22:45:13.644Z,96445.46
2019-04-28T22:47:40.999Z,96446.76
2019-04-28T22:50:08.032Z,96442.39
2019-04-28T22:52:38.989Z,96443.95
2019-04-28T22:55:06.350Z,96443.95
2019-04-28T22:57:33.645Z,96444.98
2019-04-28T23:00:01.747Z,96444.86
2019-04-28T23:02:30.268Z,96452.85
2019-04-28T23:04:57.311Z,96444.81
2019-04-28T23:07:24.601Z,96439.97
2019-04-28T23:09:51.630Z,96447.97
2019-04-28T23:12:18.677Z,96452.46
2019-04-28T23:14:45.704Z,96451.77
2019-04-28T23:17:12.752Z,96456.27
2019-04-28T23:19:40.019Z,96455.70
2019-04-28T23:22:07.108Z,96455.61
2019-04-28T23:24:34.103Z,96451.03
2019-04-28T23:27:01.136Z,96454.36
2019-04-28T23:29:30.595Z,96456.03
2019-04-28T23:31:57.185Z,96458.54
2019-04-28T23:34:24.567Z,96449.85
2019-04-28T23:36:51.577Z,96451.75
2019-04-28T23:39:18.625Z,96454.34
2019-04-28T23:41:45.660Z,96452.48
2019-04-28T23:44:12.705Z,96456.97
2019-04-28T23:46:39.732Z,96457.03
2019-04-28T23:49:06.788Z,96453.52
2019-04-28T23:51:33.822Z,96461.42
2019-04-28T23:54:01.126Z,96469.32
2019-04-28T23:56:28.484Z,96468.62
2019-04-28T23:58:55.534Z,96468.88
